San Benito, Argentina
Current Conditions -  °F | °C
As of 2:00 AM on Thursday 27 Nov 2014 (Local Time) from SAAR Reporting Station
Clear Clear  
Wind Chill: 63°   Ceiling: Unl
Heat Index: 63°   Visibility: 6mi
Dew Point: 54°   Wind: 0mph
Humidity: 72%   Direction: NA
Pressure: 29.97"   Gusts: NA
Location:  31.78°S, 60.43°W
Report Text: SAAR 270500Z 00000KT CAVOK 17/12 Q1015
Loading
Personal Weather Stations






























Interactive Weather Map New forecast layout! Learn more

10-Day Weather Forecast

Advertisements
Track Severe Weather on mobile